createdAt,value
2023-05-02T00:00:16.233Z,59.44
2023-05-02T00:02:46.383Z,58.90
2023-05-02T00:05:13.929Z,59.08
2023-05-02T00:07:41.160Z,58.43
2023-05-02T00:10:09.329Z,58.08
2023-05-02T00:12:36.592Z,58.37
2023-05-02T00:15:04.656Z,58.38
2023-05-02T00:17:32.224Z,57.94
2023-05-02T00:20:09.618Z,57.10
2023-05-02T00:22:44.251Z,56.94
2023-05-02T00:25:16.439Z,56.53
2023-05-02T00:27:47.102Z,55.95
2023-05-02T00:30:15.120Z,55.53
2023-05-02T00:32:42.705Z,55.42
2023-05-02T00:35:10.592Z,55.68
2023-05-02T00:37:39.299Z,55.31
2023-05-02T00:40:08.431Z,55.52
2023-05-02T00:42:36.837Z,55.45
2023-05-02T00:45:06.702Z,55.11
2023-05-02T00:47:34.591Z,55.39
2023-05-02T00:50:02.638Z,55.41
2023-05-02T00:52:31.633Z,55.26
2023-05-02T00:55:00.641Z,55.06
2023-05-02T00:57:27.909Z,55.45
2023-05-02T00:59:55.350Z,55.66
2023-05-02T01:02:22.749Z,56.02
2023-05-02T01:05:00.815Z,55.96
2023-05-02T01:07:51.105Z,56.01
2023-05-02T01:10:21.439Z,56.13
2023-05-02T01:13:00.914Z,55.89
2023-05-02T01:15:31.637Z,56.24
2023-05-02T01:18:01.085Z,56.40
2023-05-02T01:20:29.251Z,56.40
2023-05-02T01:22:58.566Z,56.59
2023-05-02T01:26:03.865Z,56.43
2023-05-02T01:28:53.648Z,56.95
2023-05-02T01:31:20.822Z,56.95
2023-05-02T01:33:48.558Z,57.06
2023-05-02T01:36:17.379Z,57.26
2023-05-02T01:38:45.707Z,57.22
2023-05-02T01:41:14.292Z,57.46
2023-05-02T01:43:41.647Z,57.47
2023-05-02T01:46:13.836Z,58.11
2023-05-02T01:48:43.849Z,58.02
2023-05-02T01:51:12.627Z,57.66
2023-05-02T01:53:40.833Z,58.06
2023-05-02T01:56:07.883Z,57.84
2023-05-02T01:58:35.021Z,58.05
2023-05-02T02:01:04.433Z,57.98
2023-05-02T02:03:34.086Z,57.96
2023-05-02T02:06:01.401Z,58.03
2023-05-02T02:08:30.056Z,58.15
2023-05-02T02:11:02.018Z,58.04
2023-05-02T02:13:35.994Z,58.17
2023-05-02T02:16:06.041Z,57.85
2023-05-02T02:18:37.606Z,57.92
2023-05-02T02:21:12.222Z,57.92
2023-05-02T02:23:39.469Z,58.14
2023-05-02T02:26:14.610Z,58.15
2023-05-02T02:28:43.094Z,57.73
2023-05-02T02:31:10.761Z,57.67
2023-05-02T02:33:38.379Z,57.53
2023-05-02T02:36:23.996Z,57.15
2023-05-02T02:38:56.426Z,56.96
2023-05-02T02:41:29.558Z,56.78
2023-05-02T02:44:26.300Z,56.85
2023-05-02T02:47:23.364Z,56.46
2023-05-02T02:50:07.913Z,55.61
2023-05-02T02:52:48.064Z,55.37
2023-05-02T02:55:48.190Z,55.46
2023-05-02T02:58:41.051Z,55.03
2023-05-02T03:01:20.040Z,54.96
2023-05-02T03:03:51.274Z,54.60
2023-05-02T03:06:20.536Z,54.47
2023-05-02T03:08:49.307Z,53.80
2023-05-02T03:11:24.442Z,53.65
2023-05-02T03:13:53.546Z,53.25
2023-05-02T03:16:36.964Z,53.39
2023-05-02T03:19:12.019Z,53.64
2023-05-02T03:21:47.155Z,53.18
2023-05-02T03:24:19.507Z,52.85
2023-05-02T03:26:50.353Z,52.59
2023-05-02T03:29:22.008Z,51.98
2023-05-02T03:31:49.659Z,52.19
2023-05-02T03:34:16.905Z,51.92
2023-05-02T03:36:54.057Z,51.98
2023-05-02T03:39:26.389Z,51.44
2023-05-02T03:42:04.595Z,51.50
2023-05-02T03:44:31.843Z,51.50
2023-05-02T03:46:58.980Z,51.12
2023-05-02T03:49:28.395Z,50.54
2023-05-02T03:51:55.648Z,49.74
2023-05-02T03:54:29.463Z,49.55
2023-05-02T03:57:08.381Z,49.20
2023-05-02T03:59:37.582Z,48.63
2023-05-02T04:02:09.495Z,47.83
2023-05-02T04:04:41.377Z,47.18
2023-05-02T04:07:18.897Z,46.73
2023-05-02T04:09:49.649Z,45.86
2023-05-02T04:12:19.036Z,45.14
2023-05-02T04:14:51.624Z,44.78
2023-05-02T04:17:21.534Z,44.57
2023-05-02T04:19:50.318Z,43.66
2023-05-02T04:22:18.719Z,43.32
2023-05-02T04:24:52.306Z,42.71
2023-05-02T04:27:22.010Z,42.52
2023-05-02T04:29:50.037Z,42.29
2023-05-02T04:32:18.310Z,41.60
2023-05-02T04:34:46.183Z,41.28
2023-05-02T04:37:13.944Z,40.68
2023-05-02T04:39:43.245Z,40.46
2023-05-02T04:42:36.360Z,40.49
2023-05-02T04:45:12.722Z,40.38
2023-05-02T04:47:52.820Z,40.59
2023-05-02T04:50:20.165Z,40.55
2023-05-02T04:52:50.457Z,40.52
2023-05-02T04:55:17.505Z,40.22
2023-05-02T04:57:46.606Z,40.21
2023-05-02T05:00:16.118Z,40.37
2023-05-02T05:02:44.308Z,40.11
2023-05-02T05:05:13.716Z,39.85
2023-05-02T05:07:41.134Z,39.48
2023-05-02T05:10:11.375Z,39.20
2023-05-02T05:12:46.565Z,39.45
2023-05-02T05:15:14.696Z,38.93
2023-05-02T05:17:46.819Z,38.59
2023-05-02T05:20:14.224Z,38.38
2023-05-02T05:22:42.601Z,38.31
2023-05-02T05:25:11.819Z,38.16
2023-05-02T05:27:40.080Z,37.73
2023-05-02T05:30:09.403Z,38.17
2023-05-02T05:32:36.986Z,38.15
2023-05-02T05:35:05.012Z,37.67
2023-05-02T05:37:32.566Z,37.20
2023-05-02T05:40:22.045Z,37.53
2023-05-02T05:42:54.237Z,37.62
2023-05-02T05:45:31.293Z,37.53
2023-05-02T05:47:58.407Z,37.26
2023-05-02T05:50:32.045Z,37.10
2023-05-02T05:53:01.989Z,36.75
2023-05-02T05:55:32.249Z,36.61
2023-05-02T05:58:07.633Z,36.34
2023-05-02T06:00:41.986Z,36.17
2023-05-02T06:03:15.166Z,36.04
2023-05-02T06:05:42.596Z,36.35
2023-05-02T06:08:09.754Z,35.52
2023-05-02T06:10:40.284Z,35.66
2023-05-02T06:13:08.043Z,34.91
2023-05-02T06:15:38.633Z,35.09
2023-05-02T06:18:07.304Z,35.46
2023-05-02T06:20:37.002Z,35.30
2023-05-02T06:23:04.630Z,34.52
2023-05-02T06:25:33.236Z,34.74
2023-05-02T06:28:02.724Z,34.64
2023-05-02T06:30:29.771Z,33.46
2023-05-02T06:33:01.972Z,33.06
2023-05-02T06:35:29.291Z,32.60
2023-05-02T06:38:02.468Z,32.63
2023-05-02T06:40:29.947Z,32.66
2023-05-02T06:43:00.230Z,33.01
2023-05-02T06:45:33.723Z,32.63
2023-05-02T06:48:03.554Z,32.28
2023-05-02T06:50:30.930Z,32.06
2023-05-02T06:52:59.005Z,32.57
2023-05-02T06:55:27.382Z,32.78
2023-05-02T06:57:55.354Z,30.96
2023-05-02T07:00:22.573Z,30.68
2023-05-02T07:03:11.508Z,30.76
2023-05-02T07:05:39.142Z,30.46
2023-05-02T07:08:06.999Z,30.17
2023-05-02T07:10:34.159Z,30.07
2023-05-02T07:13:01.393Z,29.96
2023-05-02T07:15:28.460Z,30.03
2023-05-02T07:17:55.614Z,29.49
2023-05-02T07:20:23.430Z,29.96
2023-05-02T07:22:50.887Z,29.73
2023-05-02T07:25:18.320Z,29.60
2023-05-02T07:27:46.047Z,29.96
2023-05-02T07:30:13.830Z,29.49
2023-05-02T07:32:40.959Z,29.74
2023-05-02T07:35:08.480Z,30.02
2023-05-02T07:37:37.958Z,29.34
2023-05-02T07:40:06.237Z,29.52
2023-05-02T07:42:34.407Z,29.75
2023-05-02T07:45:01.482Z,29.45
2023-05-02T07:47:29.528Z,28.43
2023-05-02T07:49:57.067Z,28.97
2023-05-02T07:52:24.517Z,28.61
2023-05-02T07:54:52.164Z,29.08
2023-05-02T07:57:19.479Z,28.81
2023-05-02T07:59:46.531Z,27.95
2023-05-02T08:02:14.291Z,28.30
2023-05-02T08:04:43.462Z,28.37
2023-05-02T08:07:10.804Z,27.99
2023-05-02T08:09:38.015Z,27.26
2023-05-02T08:12:05.675Z,27.50
2023-05-02T08:14:32.648Z,27.06
2023-05-02T08:20:07.106Z,26.34
2023-05-02T08:22:34.517Z,26.35
2023-05-02T08:25:01.885Z,26.66
2023-05-02T08:27:28.916Z,26.91
2023-05-02T08:30:00.638Z,27.05
2023-05-02T08:32:29.523Z,26.79
2023-05-02T08:34:59.546Z,27.18
2023-05-02T08:37:26.921Z,27.18
2023-05-02T08:39:53.931Z,26.47
2023-05-02T08:42:23.327Z,26.59
2023-05-02T08:44:50.569Z,26.65
2023-05-02T08:47:18.950Z,27.11
2023-05-02T08:49:46.513Z,27.03
2023-05-02T08:52:13.726Z,27.67
2023-05-02T08:54:41.892Z,27.82
2023-05-02T08:57:09.059Z,27.21
2023-05-02T08:59:36.104Z,26.59
2023-05-02T09:02:27.926Z,27.03
2023-05-02T09:04:56.185Z,27.13
2023-05-02T09:07:23.447Z,27.10
2023-05-02T09:09:51.412Z,27.33
2023-05-02T09:12:26.533Z,27.62
2023-05-02T09:15:32.718Z,27.57
2023-05-02T09:18:21.141Z,27.10
2023-05-02T09:20:51.690Z,28.18
2023-05-02T09:23:21.013Z,28.69
2023-05-02T09:25:52.977Z,28.77
2023-05-02T09:28:20.228Z,29.03
2023-05-02T09:30:48.206Z,28.46
2023-05-02T09:33:16.547Z,29.18
2023-05-02T09:35:54.284Z,28.57
2023-05-02T09:38:27.374Z,29.57
2023-05-02T09:40:57.799Z,29.02
2023-05-02T09:43:25.158Z,28.95
2023-05-02T09:46:02.719Z,28.68
2023-05-02T09:48:31.140Z,29.20
2023-05-02T09:50:58.276Z,28.20
2023-05-02T09:53:27.743Z,28.51
2023-05-02T09:56:03.672Z,29.59
2023-05-02T09:58:31.336Z,28.59
2023-05-02T10:01:07.198Z,27.38
2023-05-02T10:03:38.212Z,27.74
2023-05-02T10:06:05.805Z,27.88
2023-05-02T10:08:33.869Z,29.40
2023-05-02T10:11:02.248Z,28.78
2023-05-02T10:13:32.879Z,28.04
2023-05-02T10:16:05.081Z,28.57
2023-05-02T10:19:04.118Z,28.25
2023-05-02T10:21:31.395Z,27.37
2023-05-02T10:23:59.496Z,27.50
2023-05-02T10:26:28.255Z,27.45
2023-05-02T10:28:57.777Z,27.05
2023-05-02T10:31:25.737Z,27.14
2023-05-02T10:33:53.076Z,26.11
2023-05-02T10:36:24.061Z,25.43
2023-05-02T10:38:51.497Z,24.89
2023-05-02T10:41:23.474Z,25.32
2023-05-02T10:43:50.899Z,25.33
2023-05-02T10:46:38.086Z,25.73
2023-05-02T10:49:15.296Z,25.02
2023-05-02T10:51:43.075Z,24.73
2023-05-02T10:54:16.661Z,24.86
2023-05-02T10:57:03.898Z,26.38
2023-05-02T10:59:41.288Z,27.19
2023-05-02T11:02:25.556Z,24.59
2023-05-02T11:05:06.015Z,24.32
2023-05-02T11:07:34.374Z,24.25
2023-05-02T11:10:22.732Z,22.97
2023-05-02T11:12:52.162Z,23.02
2023-05-02T11:15:28.922Z,23.00
2023-05-02T11:18:11.697Z,22.93
2023-05-02T11:20:40.324Z,23.32
2023-05-02T11:23:23.031Z,23.60
2023-05-02T11:25:54.400Z,24.28
2023-05-02T11:28:37.198Z,25.07
2023-05-02T11:31:05.530Z,25.84
2023-05-02T11:33:36.011Z,24.72
2023-05-02T11:36:16.714Z,23.63
2023-05-02T11:38:44.472Z,23.87
2023-05-02T11:41:15.081Z,23.45
2023-05-02T11:43:42.836Z,23.20
2023-05-02T11:46:20.488Z,22.93
2023-05-02T11:48:51.185Z,22.80
2023-05-02T11:51:23.038Z,21.80
2023-05-02T11:53:50.693Z,21.27
2023-05-02T11:56:17.842Z,20.54
2023-05-02T11:58:48.266Z,20.96
2023-05-02T12:01:19.008Z,20.73
2023-05-02T12:04:07.831Z,20.31
2023-05-02T12:06:35.475Z,21.19
2023-05-02T12:09:20.609Z,20.49
2023-05-02T12:11:52.875Z,21.35
2023-05-02T12:14:30.152Z,20.53
2023-05-02T12:16:58.665Z,19.83
2023-05-02T12:19:25.889Z,18.96
2023-05-02T12:21:53.257Z,19.30
2023-05-02T12:24:21.592Z,18.90
2023-05-02T12:26:49.757Z,18.59
2023-05-02T12:29:18.192Z,19.26
2023-05-02T12:31:55.145Z,19.52
2023-05-02T12:34:35.288Z,19.42
2023-05-02T12:37:03.664Z,18.57
2023-05-02T12:39:42.008Z,18.04
2023-05-02T12:42:16.051Z,18.07
2023-05-02T12:44:45.947Z,18.23
2023-05-02T12:47:14.448Z,17.99
2023-05-02T12:49:57.679Z,18.12
2023-05-02T12:52:51.251Z,18.78
2023-05-02T12:55:28.397Z,19.12
2023-05-02T12:58:05.290Z,18.65
2023-05-02T13:00:33.197Z,18.70
2023-05-02T13:03:00.488Z,18.47
2023-05-02T13:05:27.649Z,18.79
2023-05-02T13:07:56.860Z,17.95
2023-05-02T13:10:25.336Z,17.95
2023-05-02T13:12:53.651Z,18.30
2023-05-02T13:15:21.318Z,18.23
2023-05-02T13:17:51.056Z,18.67
2023-05-02T13:20:19.164Z,18.93
2023-05-02T13:22:46.305Z,18.99
2023-05-02T13:25:13.351Z,18.57
2023-05-02T13:27:41.418Z,18.64
2023-05-02T13:30:10.309Z,19.01
2023-05-02T13:32:37.761Z,18.69
2023-05-02T13:35:05.960Z,18.83
2023-05-02T13:37:33.217Z,18.74
2023-05-02T13:40:02.166Z,18.40
2023-05-02T13:42:29.567Z,18.48
2023-05-02T13:44:56.819Z,19.06
2023-05-02T13:47:24.569Z,18.83
2023-05-02T13:49:51.554Z,19.21
2023-05-02T13:52:19.193Z,19.23
2023-05-02T13:54:46.653Z,19.47
2023-05-02T13:57:13.806Z,19.09
2023-05-02T13:59:41.154Z,18.89
2023-05-02T14:02:08.371Z,18.79
2023-05-02T14:04:35.623Z,18.89
2023-05-02T14:07:04.052Z,18.59
2023-05-02T14:09:32.214Z,18.59
2023-05-02T14:11:59.161Z,18.04
2023-05-02T14:14:26.309Z,17.76
2023-05-02T14:16:54.214Z,17.45
2023-05-02T14:19:21.250Z,17.86
2023-05-02T14:21:49.836Z,18.36
2023-05-02T14:24:18.636Z,18.40
2023-05-02T14:26:46.080Z,18.36
2023-05-02T14:29:14.257Z,18.14
2023-05-02T14:31:46.277Z,18.30
2023-05-02T14:34:13.485Z,17.63
2023-05-02T14:36:40.729Z,17.82
2023-05-02T14:39:07.877Z,17.80
2023-05-02T14:41:35.036Z,18.14
2023-05-02T14:44:03.608Z,18.42
2023-05-02T14:46:31.424Z,18.90
2023-05-02T14:48:58.526Z,18.36
2023-05-02T14:51:26.492Z,18.24
2023-05-02T14:53:54.593Z,18.30
2023-05-02T14:56:21.919Z,18.20
2023-05-02T14:58:49.277Z,18.23
2023-05-02T15:01:17.926Z,17.94
2023-05-02T15:04:04.273Z,17.80
2023-05-02T15:06:33.488Z,17.54
2023-05-02T15:09:01.971Z,17.85
2023-05-02T15:11:28.993Z,17.92
2023-05-02T15:13:58.836Z,17.70
2023-05-02T15:16:27.629Z,18.27
2023-05-02T15:18:57.615Z,18.59
2023-05-02T15:21:24.659Z,18.77
2023-05-02T15:23:51.807Z,18.90
2023-05-02T15:26:19.077Z,18.53
2023-05-02T15:28:46.110Z,18.30
2023-05-02T15:31:13.266Z,18.58
2023-05-02T15:33:40.924Z,18.64
2023-05-02T15:36:08.591Z,18.66
2023-05-02T15:38:39.639Z,18.66
2023-05-02T15:41:08.313Z,19.00
2023-05-02T15:43:35.672Z,19.25
2023-05-02T15:46:02.759Z,19.44
2023-05-02T15:48:31.510Z,19.88
2023-05-02T15:50:58.759Z,20.37
2023-05-02T15:53:26.021Z,20.50
2023-05-02T15:55:53.572Z,21.10
2023-05-02T15:58:20.925Z,21.49
2023-05-02T16:00:48.280Z,21.37
2023-05-02T16:03:15.970Z,21.47
2023-05-02T16:05:43.204Z,21.75
2023-05-02T16:08:10.753Z,21.96
2023-05-02T16:10:40.574Z,21.93
2023-05-02T16:13:07.722Z,22.31
2023-05-02T16:15:34.894Z,22.33
2023-05-02T16:18:02.683Z,22.57
2023-05-02T16:20:32.650Z,23.24
2023-05-02T16:23:00.210Z,23.73
2023-05-02T16:25:27.257Z,23.95
2023-05-02T16:27:55.331Z,24.60
2023-05-02T16:30:22.691Z,25.14
2023-05-02T16:32:50.060Z,25.05
2023-05-02T16:35:17.704Z,25.23
2023-05-02T16:37:44.754Z,25.82
2023-05-02T16:40:15.294Z,26.57
2023-05-02T16:42:44.599Z,26.94
2023-05-02T16:45:15.523Z,27.00
2023-05-02T16:47:43.414Z,26.95
2023-05-02T16:50:13.167Z,27.34
2023-05-02T16:52:44.952Z,28.00
2023-05-02T16:55:16.785Z,28.36
2023-05-02T16:57:44.078Z,28.99
2023-05-02T17:00:12.608Z,29.31
2023-05-02T17:02:40.027Z,29.60
2023-05-02T17:05:07.768Z,30.09
2023-05-02T17:07:37.797Z,30.48
2023-05-02T17:10:06.126Z,30.89
2023-05-02T17:12:33.541Z,31.22
2023-05-02T17:15:02.197Z,31.69
2023-05-02T17:17:31.148Z,32.02
2023-05-02T17:19:58.490Z,32.68
2023-05-02T17:22:26.651Z,32.91
2023-05-02T17:24:55.014Z,33.47
2023-05-02T17:27:22.068Z,33.88
2023-05-02T17:29:49.121Z,34.36
2023-05-02T17:32:17.263Z,34.81
2023-05-02T17:34:45.753Z,35.17
2023-05-02T17:37:13.328Z,35.61
2023-05-02T17:39:41.401Z,36.06
2023-05-02T17:42:08.450Z,36.52
2023-05-02T17:44:38.579Z,36.76
2023-05-02T17:47:06.543Z,37.20
2023-05-02T17:49:34.131Z,37.26
2023-05-02T17:52:02.086Z,37.92
2023-05-02T17:54:29.655Z,38.20
2023-05-02T17:56:57.518Z,38.31
2023-05-02T17:59:24.784Z,38.65
2023-05-02T18:01:52.289Z,38.98
2023-05-02T18:04:19.489Z,39.22
2023-05-02T18:06:46.467Z,39.59
2023-05-02T18:09:13.640Z,39.91
2023-05-02T18:11:40.778Z,40.08
2023-05-02T18:14:07.730Z,40.27
2023-05-02T18:16:36.630Z,40.36
2023-05-02T18:19:04.214Z,40.43
2023-05-02T18:21:35.735Z,40.61
2023-05-02T18:24:02.986Z,40.89
2023-05-02T18:26:30.234Z,40.95
2023-05-02T18:28:57.616Z,41.23
2023-05-02T18:31:24.658Z,41.45
2023-05-02T18:33:55.773Z,41.50
2023-05-02T18:36:27.497Z,41.47
2023-05-02T18:39:00.753Z,41.64
2023-05-02T18:41:27.856Z,41.54
2023-05-02T18:43:55.474Z,41.59
2023-05-02T18:46:23.374Z,41.48
2023-05-02T18:48:50.499Z,41.71
2023-05-02T18:51:21.113Z,41.80
2023-05-02T18:53:49.400Z,41.65
2023-05-02T18:56:16.642Z,41.88
2023-05-02T18:58:43.700Z,42.21
2023-05-02T19:01:16.897Z,42.25
2023-05-02T19:03:44.401Z,41.91
2023-05-02T19:06:12.027Z,41.92
2023-05-02T19:08:40.551Z,42.04
2023-05-02T19:11:07.736Z,42.21
2023-05-02T19:13:34.805Z,42.18
2023-05-02T19:16:01.957Z,42.30
2023-05-02T19:18:29.126Z,42.42
2023-05-02T19:20:56.336Z,42.53
2023-05-02T19:23:23.398Z,42.64
2023-05-02T19:25:50.591Z,42.86
2023-05-02T19:28:22.636Z,42.92
2023-05-02T19:30:49.660Z,43.05
2023-05-02T19:33:16.954Z,43.31
2023-05-02T19:35:44.978Z,43.27
2023-05-02T19:38:12.849Z,43.53
2023-05-02T19:40:40.099Z,43.43
2023-05-02T19:43:07.051Z,43.56
2023-05-02T19:45:34.114Z,43.49
2023-05-02T19:48:01.407Z,43.75
2023-05-02T19:50:28.904Z,44.18
2023-05-02T19:52:56.885Z,44.37
2023-05-02T19:55:24.055Z,44.34
2023-05-02T19:57:51.177Z,44.38
2023-05-02T20:00:18.559Z,44.52
2023-05-02T20:02:46.183Z,44.77
2023-05-02T20:05:13.546Z,45.00
2023-05-02T20:07:42.762Z,45.43
2023-05-02T20:10:10.110Z,45.58
2023-05-02T20:12:39.617Z,45.70
2023-05-02T20:15:07.269Z,46.04
2023-05-02T20:17:34.461Z,46.19
2023-05-02T20:20:07.519Z,46.18
2023-05-02T20:23:02.636Z,46.24
2023-05-02T20:25:29.968Z,46.30
2023-05-02T20:27:59.778Z,46.39
2023-05-02T20:30:27.154Z,46.48
2023-05-02T20:32:55.704Z,46.60
2023-05-02T20:35:23.064Z,46.51
2023-05-02T20:39:12.185Z,47.09
2023-05-02T20:41:39.490Z,47.08
2023-05-02T20:44:06.650Z,47.06
2023-05-02T20:46:34.180Z,46.79
2023-05-02T20:49:05.967Z,47.00
2023-05-02T20:51:33.010Z,46.87
2023-05-02T20:54:00.262Z,46.62
2023-05-02T20:56:27.624Z,46.52
2023-05-02T20:58:56.214Z,46.29
2023-05-02T21:01:23.357Z,46.58
2023-05-02T21:03:50.738Z,46.57
2023-05-02T21:06:19.596Z,46.73
2023-05-02T21:08:46.959Z,46.78
2023-05-02T21:11:15.650Z,46.92
2023-05-02T21:13:43.633Z,46.78
2023-05-02T21:16:16.727Z,47.03
2023-05-02T21:18:46.519Z,47.12
2023-05-02T21:21:17.989Z,46.78
2023-05-02T21:23:51.978Z,46.70
2023-05-02T21:26:20.574Z,46.40
2023-05-02T21:28:47.923Z,46.41
2023-05-02T21:31:18.691Z,46.13
2023-05-02T21:33:46.109Z,46.13
2023-05-02T21:36:13.055Z,46.26
2023-05-02T21:38:42.863Z,46.25
2023-05-02T21:41:09.808Z,46.28
2023-05-02T21:43:39.193Z,46.34
2023-05-02T21:46:07.295Z,46.64
2023-05-02T21:48:35.152Z,46.27
2023-05-02T21:51:07.484Z,46.65
2023-05-02T21:53:34.587Z,47.00
2023-05-02T21:56:01.729Z,46.85
2023-05-02T21:58:32.279Z,46.46
2023-05-02T22:00:59.759Z,46.26
2023-05-02T22:03:42.631Z,46.15
2023-05-02T22:06:10.778Z,45.94
2023-05-02T22:08:38.273Z,45.65
2023-05-02T22:11:10.744Z,45.26
2023-05-02T22:13:38.506Z,45.24
2023-05-02T22:16:06.974Z,45.23
2023-05-02T22:18:35.887Z,44.98
2023-05-02T22:21:03.844Z,44.71
2023-05-02T22:23:31.370Z,44.58
2023-05-02T22:25:59.031Z,44.40
2023-05-02T22:28:27.245Z,44.23
2023-05-02T22:30:59.011Z,43.97
2023-05-02T22:33:30.664Z,43.91
2023-05-02T22:36:18.177Z,43.80
2023-05-02T22:38:46.148Z,43.68
2023-05-02T22:41:13.400Z,43.42
2023-05-02T22:43:40.548Z,43.42
2023-05-02T22:46:07.627Z,43.49
2023-05-02T22:48:34.746Z,43.52
2023-05-02T22:51:02.404Z,43.51
2023-05-02T22:53:38.981Z,43.48
2023-05-02T22:56:07.056Z,43.40
2023-05-02T22:58:34.101Z,43.34
2023-05-02T23:01:05.257Z,43.41
2023-05-02T23:03:35.686Z,43.55
2023-05-02T23:06:03.675Z,43.55
2023-05-02T23:08:30.881Z,43.60
2023-05-02T23:10:57.939Z,43.64
2023-05-02T23:13:26.234Z,43.71
2023-05-02T23:16:02.622Z,43.84
2023-05-02T23:18:29.838Z,43.83
2023-05-02T23:20:57.088Z,43.84
2023-05-02T23:23:24.547Z,43.90
2023-05-02T23:25:52.613Z,43.95
2023-05-02T23:28:19.776Z,43.91
2023-05-02T23:30:46.925Z,44.23
2023-05-02T23:33:16.759Z,44.07
2023-05-02T23:35:43.776Z,44.06
2023-05-02T23:38:10.968Z,44.23
2023-05-02T23:40:39.421Z,44.28
2023-05-02T23:43:08.846Z,44.40
2023-05-02T23:45:36.193Z,44.57
2023-05-02T23:48:04.762Z,44.64
2023-05-02T23:50:34.795Z,44.86
2023-05-02T23:53:01.845Z,44.78
2023-05-02T23:55:32.188Z,44.81
2023-05-02T23:58:01.683Z,45.04
